< < Back
Terminal Aerodrome Forecast


Current Version              Previous Versions:   1  2  3  4  5  6  7  8  9  

Terminal Aerodrome Forecast

339
FTUS44 KBMX 070531
TAFMGM
TAF
KMGM 070531Z 0706/0806 00000KT P6SM SKC
     FM071600 25005KT P6SM SKC=

Latest METAR

105
SAUS80 KWBC 071500
MTRMGM
METAR KMGM 071453Z VRB04KT 10SM CLR 30/24 A3017 RMK AO2 SLP214 T03000239
50004


USA.gov is the U.S. government's official web portal to all federal, state and local government web resources and services.